Time;durP1;ratioP1;P1;durP2;ratioP2;P2;SDS_P1;SDS_P2;PMS_P1;PMS_P2;Temp;Humidity;BMP_temperature;BMP_pressure;BME280_temperature;BME280_humidity;BME280_pressure;Samples;Min_cycle;Max_cycle;Signal;HPM_P1;HPM_P2
2022/05/20 00:01:06;;;;;;;5.63;4.65;;;18.70;99.90;;;;;;5111737;28;20517;-77
2022/05/20 00:03:34;;;;;;;12.55;4.93;;;18.80;99.90;;;;;;5111186;28;20067;-78
2022/05/20 00:05:59;;;;;;;6.00;4.43;;;18.70;99.90;;;;;;5109887;28;20059;-77
2022/05/20 00:08:26;;;;;;;6.53;4.70;;;18.60;99.90;;;;;;5106079;28;20557;-77
2022/05/20 00:10:53;;;;;;;7.55;4.30;;;18.60;99.90;;;;;;5115925;28;20041;-78
2022/05/20 00:13:20;;;;;;;8.48;4.75;;;18.50;99.90;;;;;;5114533;28;20476;-77
2022/05/20 00:15:46;;;;;;;9.57;4.53;;;18.60;99.90;;;;;;5113918;28;20035;-77
2022/05/20 00:18:12;;;;;;;9.48;5.65;;;18.50;99.90;;;;;;5115249;28;20081;-77
2022/05/20 00:20:38;;;;;;;8.43;5.65;;;18.50;99.90;;;;;;5114452;28;20032;-77
2022/05/20 00:23:04;;;;;;;7.80;5.40;;;18.50;99.90;;;;;;5115126;28;20031;-77
2022/05/20 00:25:48;;;;;;;9.60;5.20;;;18.40;99.90;;;;;;5111659;28;20074;-77
2022/05/20 00:28:21;;;;;;;8.18;4.43;;;18.30;99.90;;;;;;5114633;28;20016;-77
2022/05/20 00:30:49;;;;;;;5.38;4.80;;;18.20;99.90;;;;;;5115381;28;20027;-75
2022/05/20 00:33:15;;;;;;;5.47;4.40;;;18.10;99.90;;;;;;5096114;28;20034;-74
2022/05/20 00:35:41;;;;;;;6.50;4.55;;;18.10;99.90;;;;;;5108387;28;20024;-77
2022/05/20 00:38:06;;;;;;;5.45;4.70;;;18.00;99.90;;;;;;5115685;28;20244;-75
2022/05/20 00:40:32;;;;;;;9.52;4.50;;;17.90;99.90;;;;;;5114195;28;20104;-75
2022/05/20 00:43:12;;;;;;;8.95;4.90;;;17.80;99.90;;;;;;5114856;28;20055;-75
2022/05/20 00:45:39;;;;;;;4.63;4.20;;;17.80;99.90;;;;;;5113500;28;20189;-76
2022/05/20 00:48:05;;;;;;;5.40;4.45;;;17.70;99.90;;;;;;5115074;28;20092;-75
2022/05/20 00:50:31;;;;;;;5.78;5.10;;;17.70;99.90;;;;;;5113592;28;20495;-75
2022/05/20 00:52:58;;;;;;;5.57;4.85;;;17.60;99.90;;;;;;5113806;28;20035;-76
2022/05/20 00:55:26;;;;;;;7.72;5.47;;;17.60;99.90;;;;;;5109761;28;20039;-76
2022/05/20 00:58:04;;;;;;;6.10;5.40;;;17.60;99.90;;;;;;5109675;28;20115;-74
2022/05/20 01:00:32;;;;;;;11.80;5.88;;;17.60;99.90;;;;;;5106831;28;20372;-76
2022/05/20 01:03:01;;;;;;;9.13;5.45;;;17.60;99.90;;;;;;5115240;28;20024;-75
2022/05/20 01:05:33;;;;;;;9.32;5.43;;;17.50;99.90;;;;;;5113880;28;20045;-75
2022/05/20 01:08:00;;;;;;;7.07;5.50;;;17.40;99.90;;;;;;5108926;28;20621;-75
2022/05/20 01:10:26;;;;;;;8.35;5.40;;;17.50;99.90;;;;;;5106009;28;20346;-75
2022/05/20 01:12:53;;;;;;;11.52;5.85;;;17.40;99.90;;;;;;5114886;28;20041;-75
2022/05/20 01:15:19;;;;;;;8.05;5.25;;;17.40;99.90;;;;;;5110990;28;20035;-75
2022/05/20 01:17:47;;;;;;;5.68;5.03;;;17.40;99.90;;;;;;5114637;28;20023;-75
2022/05/20 01:20:19;;;;;;;7.32;5.55;;;17.30;99.90;;;;;;5113664;28;20068;-75
2022/05/20 01:22:54;;;;;;;6.97;5.20;;;17.30;99.90;;;;;;5114043;28;20062;-75
2022/05/20 01:25:23;;;;;;;11.30;5.82;;;17.30;99.90;;;;;;5113458;28;20015;-75
2022/05/20 01:27:49;;;;;;;7.13;5.43;;;17.20;99.90;;;;;;5110907;28;20032;-75
2022/05/20 01:30:18;;;;;;;9.75;5.88;;;17.20;99.90;;;;;;5110782;28;20337;-75
2022/05/20 01:32:44;;;;;;;11.10;5.78;;;17.10;99.90;;;;;;5105105;28;20107;-75
2022/05/20 01:35:21;;;;;;;7.03;5.65;;;17.20;99.90;;;;;;5112403;28;20526;-76
2022/05/20 01:37:47;;;;;;;7.85;5.60;;;17.10;99.90;;;;;;5113210;28;20180;-76
2022/05/20 01:40:12;;;;;;;6.20;5.30;;;17.10;99.90;;;;;;5100707;28;20540;-76
2022/05/20 01:42:44;;;;;;;9.63;5.60;;;17.10;99.90;;;;;;5112715;28;20471;-76
2022/05/20 01:45:16;;;;;;;7.28;5.70;;;17.10;99.90;;;;;;5107780;28;20189;-77
2022/05/20 01:47:53;;;;;;;6.55;5.57;;;17.00;99.90;;;;;;5112096;28;20610;-75
2022/05/20 01:50:28;;;;;;;7.07;5.60;;;17.00;99.90;;;;;;5112909;28;20027;-75
2022/05/20 01:53:05;;;;;;;8.25;5.68;;;17.00;99.90;;;;;;5107922;28;20058;-76
2022/05/20 01:55:58;;;;;;;8.48;6.05;;;16.90;99.90;;;;;;5105997;28;20030;-77
2022/05/20 01:58:43;;;;;;;8.02;5.90;;;16.90;99.90;;;;;;5082857;28;20060;-77
2022/05/20 02:01:16;;;;;;;9.13;5.43;;;16.90;99.90;;;;;;5113008;28;20112;-77
2022/05/20 02:03:51;;;;;;;6.43;5.53;;;16.80;99.90;;;;;;5094325;28;20467;-76
2022/05/20 02:06:50;;;;;;;7.38;5.75;;;16.80;99.90;;;;;;5100102;28;20400;-76
2022/05/20 02:09:27;;;;;;;10.77;6.63;;;16.80;99.90;;;;;;5088289;28;20788;-76
2022/05/20 02:11:55;;;;;;;8.85;6.05;;;16.80;99.90;;;;;;5112582;28;20076;-76
2022/05/20 02:14:32;;;;;;;15.43;6.30;;;16.80;99.90;;;;;;5111978;28;20032;-77
2022/05/20 02:17:09;;;;;;;6.82;5.63;;;16.70;99.90;;;;;;5094844;28;20505;-76
2022/05/20 02:19:47;;;;;;;7.50;6.38;;;16.70;99.90;;;;;;5111713;28;20031;-76
2022/05/20 02:22:17;;;;;;;7.63;6.30;;;16.70;99.90;;;;;;5112948;28;20083;-76
2022/05/20 02:24:45;;;;;;;9.27;6.47;;;16.70;99.90;;;;;;5105071;28;20024;-76
2022/05/20 02:27:19;;;;;;;7.25;6.32;;;16.60;99.90;;;;;;5112970;28;20120;-76
2022/05/20 02:30:08;;;;;;;9.30;6.72;;;16.60;99.90;;;;;;5104242;28;20492;-76
2022/05/20 02:32:43;;;;;;;9.68;6.30;;;16.60;99.90;;;;;;5111090;28;20388;-76
2022/05/20 02:35:09;;;;;;;13.98;6.40;;;16.60;99.90;;;;;;5111069;28;20043;-77
2022/05/20 02:37:36;;;;;;;9.23;6.10;;;16.60;99.90;;;;;;5111339;28;20036;-77
2022/05/20 02:40:04;;;;;;;9.13;6.45;;;16.60;99.90;;;;;;5105931;28;20134;-76
2022/05/20 02:42:30;;;;;;;6.85;6.15;;;16.60;99.90;;;;;;5111103;28;20024;-76
2022/05/20 02:44:59;;;;;;;9.88;7.18;;;16.60;99.90;;;;;;5106160;28;20027;-76
2022/05/20 02:47:24;;;;;;;14.13;6.32;;;16.60;99.90;;;;;;5112146;28;20031;-74
2022/05/20 02:49:50;;;;;;;7.90;6.43;;;16.50;99.90;;;;;;5111546;28;20489;-74
2022/05/20 02:52:15;;;;;;;10.05;6.85;;;16.60;99.90;;;;;;5111772;28;20629;-77
2022/05/20 02:54:41;;;;;;;9.50;7.03;;;16.60;99.90;;;;;;5109599;28;20372;-76
2022/05/20 02:57:07;;;;;;;8.43;6.32;;;16.60;99.90;;;;;;5111975;28;20032;-76
2022/05/20 03:05:01;;;;;;;7.57;6.60;;;16.70;99.90;;;;;;5111655;28;20038;-75
2022/05/20 03:07:26;;;;;;;7.28;6.40;;;16.70;99.90;;;;;;5093130;28;20036;-76
2022/05/20 03:09:52;;;;;;;10.50;6.25;;;16.60;99.90;;;;;;5104675;28;20081;-77
2022/05/20 03:12:19;;;;;;;8.52;6.40;;;16.60;99.90;;;;;;5111806;28;20024;-76
2022/05/20 03:14:45;;;;;;;6.78;6.07;;;16.60;99.90;;;;;;5106678;28;20043;-76
2022/05/20 03:17:10;;;;;;;7.35;6.70;;;16.60;99.90;;;;;;5111809;28;20027;-77
2022/05/20 03:19:37;;;;;;;8.43;6.40;;;16.50;99.90;;;;;;5110755;28;20055;-77
2022/05/20 03:22:05;;;;;;;7.50;6.53;;;16.50;99.90;;;;;;5111986;28;20028;-76
2022/05/20 03:24:31;;;;;;;9.27;6.55;;;16.50;99.90;;;;;;5091836;28;20038;-76
2022/05/20 03:26:57;;;;;;;10.45;6.72;;;16.50;99.90;;;;;;5111628;28;20043;-76
2022/05/20 03:29:23;;;;;;;7.57;6.72;;;16.60;99.90;;;;;;5084675;28;20080;-76
2022/05/20 03:31:49;;;;;;;10.95;6.95;;;16.60;99.90;;;;;;5110156;28;20054;-76
2022/05/20 03:34:17;;;;;;;7.35;6.65;;;16.60;99.90;;;;;;5111549;28;20059;-77
2022/05/20 03:36:45;;;;;;;16.65;7.85;;;16.60;99.90;;;;;;5110460;28;20027;-77
2022/05/20 03:39:14;;;;;;;9.10;7.00;;;16.60;99.90;;;;;;5111747;28;20061;-77
2022/05/20 03:41:41;;;;;;;11.68;6.60;;;16.60;99.90;;;;;;5102428;28;20104;-76
2022/05/20 03:44:09;;;;;;;9.30;7.18;;;16.60;99.90;;;;;;5110737;28;20028;-75
2022/05/20 03:46:42;;;;;;;10.00;7.05;;;16.60;99.90;;;;;;5110161;28;20027;-75
2022/05/20 03:49:09;;;;;;;10.73;7.22;;;16.70;99.90;;;;;;5093352;28;20027;-75
2022/05/20 03:51:35;;;;;;;11.35;7.00;;;16.70;99.90;;;;;;5105080;28;20038;-76
2022/05/20 03:54:02;;;;;;;7.05;6.32;;;16.70;99.90;;;;;;5110160;28;20031;-75
2022/05/20 03:56:28;;;;;;;11.77;7.47;;;16.70;99.90;;;;;;5110940;28;20032;-75
2022/05/20 03:58:54;;;;;;;7.97;7.18;;;16.70;99.90;;;;;;5106598;28;20415;-74
2022/05/20 04:04:04;;;;;;;12.77;7.82;;;16.80;99.90;;;;;;5110878;28;20396;-75
2022/05/20 04:06:30;;;;;;;10.60;7.45;;;16.80;99.90;;;;;;5110097;28;20036;-76
2022/05/20 04:08:56;;;;;;;8.55;6.80;;;16.90;99.90;;;;;;5110330;28;20035;-75
2022/05/20 04:11:22;;;;;;;10.00;7.80;;;16.90;99.90;;;;;;5109513;28;20406;-74
2022/05/20 04:13:48;;;;;;;10.90;7.95;;;17.00;99.90;;;;;;5110390;28;20982;-75
2022/05/20 04:16:15;;;;;;;8.55;7.25;;;16.90;99.90;;;;;;5111340;28;20104;-75
2022/05/20 04:18:41;;;;;;;7.90;6.65;;;17.00;99.90;;;;;;5102266;28;20054;-75
2022/05/20 04:21:08;;;;;;;10.65;6.80;;;17.00;99.90;;;;;;5110503;28;20055;-75
2022/05/20 04:23:34;;;;;;;7.82;7.05;;;17.10;99.90;;;;;;5101806;28;20550;-76
2022/05/20 04:26:00;;;;;;;9.98;7.10;;;17.10;99.90;;;;;;5102034;28;20468;-74
2022/05/20 04:28:26;;;;;;;11.65;8.65;;;17.10;99.90;;;;;;5085127;28;20124;-75
2022/05/20 04:30:57;;;;;;;11.25;7.55;;;17.10;99.90;;;;;;5100823;28;20528;-76
2022/05/20 04:33:23;;;;;;;8.32;7.40;;;17.10;99.90;;;;;;5096535;28;20025;-75
2022/05/20 04:35:49;;;;;;;12.60;7.90;;;17.10;99.90;;;;;;5096888;28;20492;-76
2022/05/20 04:38:14;;;;;;;13.18;8.27;;;17.20;99.90;;;;;;5085066;28;20040;-76
2022/05/20 04:40:40;;;;;;;8.70;7.03;;;17.20;99.90;;;;;;5101820;28;20047;-76
2022/05/20 04:48:35;;;;;;;8.88;7.97;;;17.30;99.90;;;;;;5099983;28;20519;-77
2022/05/20 04:51:01;;;;;;;10.63;7.15;;;17.30;99.90;;;;;;5098549;28;20051;-77
2022/05/20 04:56:11;;;;;;;13.85;8.25;;;17.40;99.90;;;;;;5110173;28;20072;-75
2022/05/20 04:58:37;;;;;;;13.40;7.60;;;17.50;99.90;;;;;;5112137;28;20419;-76
2022/05/20 05:01:04;;;;;;;7.35;6.45;;;17.60;99.90;;;;;;5107627;28;20098;-75
2022/05/20 05:03:30;;;;;;;8.30;6.85;;;17.70;99.90;;;;;;5114120;28;20023;-75
2022/05/20 05:05:56;;;;;;;11.07;7.45;;;17.80;99.90;;;;;;5113766;28;20023;-75
2022/05/20 05:08:21;;;;;;;10.95;7.25;;;17.90;99.90;;;;;;5114149;28;20453;-77
2022/05/20 05:10:48;;;;;;;9.15;7.03;;;18.00;99.90;;;;;;5110359;28;20060;-79
2022/05/20 05:13:15;;;;;;;9.35;7.10;;;18.10;99.90;;;;;;5113840;28;20027;-76
2022/05/20 05:15:43;;;;;;;10.43;6.50;;;18.20;99.90;;;;;;5113505;28;20020;-79
2022/05/20 05:18:12;;;;;;;9.02;6.68;;;18.30;99.90;;;;;;5112741;28;20032;-76
2022/05/20 05:20:53;;;;;;;9.70;7.18;;;18.40;99.90;;;;;;5113127;28;20028;-77
2022/05/20 05:23:20;;;;;;;7.28;6.57;;;18.50;99.90;;;;;;5113695;28;20035;-72
2022/05/20 05:25:46;;;;;;;12.02;6.82;;;18.60;99.90;;;;;;5111936;28;20392;-76
2022/05/20 05:28:11;;;;;;;11.50;7.25;;;18.70;99.90;;;;;;5113223;28;20042;-76
2022/05/20 05:30:37;;;;;;;8.65;7.20;;;18.80;99.90;;;;;;5112609;28;20556;-75
2022/05/20 05:33:03;;;;;;;12.25;7.28;;;19.00;99.90;;;;;;5113109;28;20049;-76
2022/05/20 05:35:33;;;;;;;8.85;6.45;;;19.10;99.90;;;;;;5113601;28;20035;-77
2022/05/20 05:37:58;;;;;;;8.77;6.23;;;19.20;99.90;;;;;;5113392;28;20042;-77
2022/05/20 05:40:30;;;;;;;8.75;5.88;;;19.30;99.90;;;;;;5105667;28;20052;-77
2022/05/20 05:42:56;;;;;;;10.85;6.65;;;19.40;99.90;;;;;;5113257;28;20141;-82
2022/05/20 05:45:25;;;;;;;10.35;6.63;;;19.50;99.90;;;;;;5114212;28;20053;-81
2022/05/20 05:47:55;;;;;;;9.68;6.82;;;19.60;99.90;;;;;;5111881;28;20023;-80
2022/05/20 05:50:22;;;;;;;8.70;6.80;;;19.70;99.90;;;;;;5113329;28;20093;-77
2022/05/20 05:52:55;;;;;;;13.20;6.88;;;19.90;99.90;;;;;;5094818;28;20605;-76
2022/05/20 05:55:21;;;;;;;10.30;6.75;;;20.00;99.90;;;;;;5114228;28;20504;-81
2022/05/20 05:57:46;;;;;;;10.25;6.93;;;20.20;99.90;;;;;;5112557;28;20035;-82
2022/05/20 06:00:13;;;;;;;12.15;7.25;;;20.20;99.90;;;;;;5095310;28;20027;-82
2022/05/20 06:02:38;;;;;;;12.60;6.32;;;20.40;99.90;;;;;;5113261;28;20043;-80
2022/05/20 06:05:04;;;;;;;11.43;7.10;;;20.50;99.90;;;;;;5113056;28;20016;-80
2022/05/20 06:07:30;;;;;;;7.95;6.55;;;20.60;99.90;;;;;;5105947;28;20109;-80
2022/05/20 06:09:55;;;;;;;9.38;6.03;;;20.70;99.90;;;;;;5119014;28;20035;-78
2022/05/20 06:12:21;;;;;;;8.43;5.97;;;20.70;99.90;;;;;;5112456;28;20039;-80
2022/05/20 06:14:47;;;;;;;10.88;6.45;;;20.80;99.90;;;;;;5112160;28;20058;-78
2022/05/20 06:17:13;;;;;;;9.10;7.22;;;20.90;99.90;;;;;;5102318;28;20063;-78
2022/05/20 06:19:40;;;;;;;8.95;6.30;;;20.90;99.90;;;;;;5111517;28;20020;-80
2022/05/20 06:22:06;;;;;;;6.53;5.80;;;20.90;99.90;;;;;;5114070;28;20495;-79
2022/05/20 06:24:32;;;;;;;9.38;6.50;;;20.90;99.90;;;;;;5112249;28;20034;-79
2022/05/20 06:26:58;;;;;;;11.55;6.10;;;20.90;99.90;;;;;;5106482;28;20032;-77
2022/05/20 06:29:23;;;;;;;13.27;6.88;;;21.00;99.90;;;;;;5108232;28;20028;-79
2022/05/20 06:31:49;;;;;;;10.45;5.80;;;21.20;99.90;;;;;;5108641;28;20028;-81
2022/05/20 06:34:15;;;;;;;8.50;5.57;;;21.40;99.90;;;;;;5112071;28;20040;-81
2022/05/20 06:42:09;;;;;;;5.07;4.53;;;21.90;99.90;;;;;;5113518;28;20086;-78
2022/05/20 06:44:35;;;;;;;8.15;5.60;;;22.00;99.90;;;;;;5113754;28;20020;-78
2022/05/20 06:47:00;;;;;;;8.27;5.13;;;22.20;99.90;;;;;;5111631;28;20028;-79
2022/05/20 06:49:26;;;;;;;9.65;5.35;;;22.40;99.90;;;;;;5112695;28;20035;-79
2022/05/20 06:51:54;;;;;;;5.60;4.97;;;22.50;99.90;;;;;;5102810;28;20538;-79
2022/05/20 06:54:20;;;;;;;6.22;4.68;;;22.70;99.90;;;;;;5103028;28;20031;-80
2022/05/20 06:56:46;;;;;;;9.13;5.40;;;22.80;99.90;;;;;;5110700;28;20035;-79
2022/05/20 06:59:12;;;;;;;7.05;5.30;;;23.00;99.90;;;;;;5100407;28;20432;-78
2022/05/20 07:01:38;;;;;;;9.82;5.10;;;23.10;99.90;;;;;;5102542;28;20096;-79
2022/05/20 07:04:05;;;;;;;9.80;4.78;;;23.20;99.90;;;;;;5111786;28;20038;-78
2022/05/20 07:06:32;;;;;;;6.75;4.82;;;23.30;99.90;;;;;;5110322;28;20133;-78
2022/05/20 07:08:58;;;;;;;4.90;4.15;;;23.50;99.90;;;;;;5102734;28;20185;-80
2022/05/20 07:11:25;;;;;;;6.70;5.07;;;23.50;99.90;;;;;;5112121;28;20031;-79
2022/05/20 07:13:55;;;;;;;6.43;4.43;;;23.70;99.90;;;;;;5107861;28;20493;-81
2022/05/20 07:16:22;;;;;;;8.25;5.40;;;23.90;99.90;;;;;;5103341;28;20540;-79
2022/05/20 07:18:47;;;;;;;7.50;4.80;;;24.00;99.90;;;;;;5075812;28;20050;-81
2022/05/20 07:21:14;;;;;;;6.57;4.10;;;24.20;99.90;;;;;;5110608;28;20032;-80
2022/05/20 07:23:40;;;;;;;8.40;4.05;;;24.40;99.90;;;;;;5110842;28;20031;-79
2022/05/20 07:26:06;;;;;;;4.68;3.60;;;24.40;99.90;;;;;;5110036;28;20385;-80
2022/05/20 07:28:33;;;;;;;4.55;3.28;;;24.60;99.90;;;;;;5105835;28;20400;-80
2022/05/20 07:30:59;;;;;;;5.72;2.80;;;24.70;99.90;;;;;;5089047;28;20024;-81
2022/05/20 07:33:25;;;;;;;6.35;3.50;;;24.80;99.90;;;;;;5105360;28;20394;-76
2022/05/20 07:35:50;;;;;;;7.88;3.50;;;25.00;99.90;;;;;;5111554;28;20039;-80
2022/05/20 07:38:17;;;;;;;7.03;3.40;;;25.20;99.60;;;;;;5112711;28;20035;-79
2022/05/20 07:40:43;;;;;;;5.03;3.75;;;25.30;99.40;;;;;;5111123;28;20039;-79
2022/05/20 07:43:11;;;;;;;6.70;3.67;;;;;;;;;;5112299;28;20028;-79
2022/05/20 07:45:37;;;;;;;5.85;3.53;;;25.70;98.70;;;;;;5111749;28;20468;-77
2022/05/20 07:48:03;;;;;;;4.30;3.35;;;25.80;98.70;;;;;;5092704;28;20472;-77
2022/05/20 07:50:40;;;;;;;7.07;3.60;;;26.00;97.90;;;;;;5111504;28;20042;-79
2022/05/20 07:53:21;;;;;;;5.30;3.03;;;26.20;96.90;;;;;;5111991;28;20036;-76
2022/05/20 07:55:56;;;;;;;6.97;3.33;;;26.20;95.40;;;;;;5104263;28;20095;-76
2022/05/20 07:58:29;;;;;;;5.22;3.30;;;26.40;94.70;;;;;;5111730;28;20043;-76
2022/05/20 08:00:58;;;;;;;5.63;3.47;;;26.40;94.70;;;;;;5111293;28;20023;-78
2022/05/20 08:06:12;;;;;;;7.70;3.42;;;26.70;93.80;;;;;;5111984;28;20079;-77
2022/05/20 08:08:38;;;;;;;8.38;3.30;;;26.90;91.90;;;;;;5111294;28;20032;-75
2022/05/20 08:11:03;;;;;;;8.27;3.50;;;27.10;91.20;;;;;;5111208;28;20050;-77
2022/05/20 08:13:29;;;;;;;8.05;3.53;;;27.10;90.60;;;;;;5093385;28;20023;-77
2022/05/20 08:15:55;;;;;;;6.60;3.40;;;27.20;91.00;;;;;;5111155;28;20024;-78
2022/05/20 08:18:21;;;;;;;5.57;3.75;;;;;;;;;;5111292;28;20122;-78
2022/05/20 08:20:46;;;;;;;4.82;3.47;;;27.80;95.50;;;;;;5110620;28;20416;-78
2022/05/20 08:23:12;;;;;;;5.60;3.20;;;27.50;90.80;;;;;;5111470;28;20080;-78
2022/05/20 08:25:38;;;;;;;9.93;4.07;;;27.50;90.40;;;;;;5111512;28;20024;-75
2022/05/20 08:28:04;;;;;;;7.75;3.75;;;27.60;89.60;;;;;;5111041;28;20028;-79
2022/05/20 08:30:30;;;;;;;9.75;3.70;;;27.60;88.60;;;;;;5112197;28;20024;-77
2022/05/20 08:32:56;;;;;;;4.22;2.90;;;27.70;88.10;;;;;;5114404;28;20023;-78
2022/05/20 08:35:22;;;;;;;5.13;3.22;;;27.70;87.80;;;;;;5115290;28;20460;-77
2022/05/20 08:37:48;;;;;;;3.90;3.45;;;28.00;86.30;;;;;;5114609;28;20028;-77
2022/05/20 08:40:27;;;;;;;6.88;3.60;;;28.10;85.60;;;;;;5111170;28;20495;-75
2022/05/20 08:42:55;;;;;;;5.70;3.10;;;28.20;84.50;;;;;;5112348;28;20114;-77
2022/05/20 08:45:28;;;;;;;6.60;3.88;;;28.30;84.10;;;;;;5115284;28;20047;-76
2022/05/20 08:47:55;;;;;;;4.63;3.65;;;28.40;84.00;;;;;;5112011;28;20058;-77
2022/05/20 08:50:31;;;;;;;9.30;4.60;;;28.40;84.30;;;;;;5115149;28;20039;-77
2022/05/20 08:52:57;;;;;;;6.70;4.38;;;28.40;84.50;;;;;;5114022;28;20119;-77
2022/05/20 08:55:23;;;;;;;7.68;3.60;;;28.50;82.90;;;;;;5114895;28;20092;-76
2022/05/20 08:57:58;;;;;;;8.05;3.72;;;28.50;80.60;;;;;;5106005;28;20042;-77
2022/05/20 09:00:25;;;;;;;5.30;3.45;;;28.70;81.10;;;;;;5114676;28;20376;-78
2022/05/20 09:02:50;;;;;;;12.27;3.60;;;28.70;79.80;;;;;;5114178;28;20114;-77
2022/05/20 09:05:24;;;;;;;6.55;3.63;;;;;;;;;;5114787;28;20436;-77
2022/05/20 09:08:22;;;;;;;4.13;3.63;;;29.00;78.20;;;;;;5113991;28;20042;-76
2022/05/20 09:10:54;;;;;;;6.60;4.20;;;29.10;77.60;;;;;;5103673;28;20139;-80
2022/05/20 09:15:43;;;;;;;7.38;4.30;;;29.20;77.10;;;;;;5115384;28;20145;-79
2022/05/20 09:16:23;;;;;;;6.82;3.50;;;29.40;75.70;;;;;;5109028;28;20034;-80
2022/05/20 09:19:25;;;;;;;7.28;4.15;;;29.40;76.10;;;;;;5113450;28;20110;-76
2022/05/20 09:22:02;;;;;;;6.45;3.33;;;29.50;75.30;;;;;;5113866;28;20036;-77
2022/05/20 09:24:36;;;;;;;8.15;3.28;;;29.70;71.20;;;;;;5114405;28;20034;-76
2022/05/20 09:27:07;;;;;;;9.32;3.53;;;29.70;71.20;;;;;;5113367;28;20039;-76
2022/05/20 09:29:44;;;;;;;6.97;3.42;;;29.80;69.70;;;;;;5114000;28;20035;-73
2022/05/20 09:32:23;;;;;;;5.43;3.67;;;29.60;68.90;;;;;;5114406;28;20032;-79
2022/05/20 09:35:08;;;;;;;6.25;3.60;;;29.70;69.30;;;;;;5114646;28;20172;-80
2022/05/20 09:37:35;;;;;;;6.53;3.55;;;;;;;;;;5113458;28;20040;-79
2022/05/20 09:40:22;;;;;;;9.70;3.97;;;30.00;69.40;;;;;;5113452;28;20027;-80
2022/05/20 09:42:58;;;;;;;10.95;3.70;;;30.10;67.70;;;;;;5112847;28;20034;-79
2022/05/20 09:45:25;;;;;;;8.20;4.00;;;30.00;67.70;;;;;;5096127;28;20169;-78
2022/05/20 09:47:57;;;;;;;5.72;3.63;;;30.00;67.30;;;;;;5112845;28;20366;-82
2022/05/20 09:50:25;;;;;;;6.35;3.20;;;30.00;67.50;;;;;;5086695;28;20092;-83
2022/05/20 09:53:02;;;;;;;5.43;3.30;;;30.00;67.20;;;;;;5096769;28;20503;-78
2022/05/20 09:55:39;;;;;;;5.78;3.58;;;29.90;67.10;;;;;;5114490;28;20031;-79
2022/05/20 09:58:17;;;;;;;8.05;3.35;;;30.10;66.50;;;;;;5113021;28;20027;-79
2022/05/20 10:00:53;;;;;;;6.20;3.65;;;30.00;65.80;;;;;;5113492;28;20110;-78
2022/05/20 10:03:39;;;;;;;6.47;4.00;;;30.20;66.50;;;;;;5113811;28;20123;-78
2022/05/20 10:06:19;;;;;;;8.40;3.95;;;30.20;66.40;;;;;;5113620;28;20070;-79
2022/05/20 10:09:18;;;;;;;7.35;3.55;;;30.30;66.40;;;;;;5112980;28;20032;-79
2022/05/20 10:12:06;;;;;;;4.80;3.33;;;30.50;65.80;;;;;;5112874;28;20488;-77
2022/05/20 10:14:56;;;;;;;8.13;3.88;;;30.60;64.80;;;;;;5114650;28;20031;-81
2022/05/20 10:17:55;;;;;;;8.95;3.55;;;30.80;64.70;;;;;;5095472;28;20465;-76
2022/05/20 10:20:36;;;;;;;8.95;3.80;;;;;;;;;;5095626;28;20118;-76
2022/05/20 10:23:20;;;;;;;6.35;3.60;;;30.70;63.40;;;;;;5112443;28;20814;-76
2022/05/20 10:25:52;;;;;;;6.18;3.90;;;30.80;63.50;;;;;;5113176;28;20114;-78
2022/05/20 10:49:29;;;;;;;9.80;3.35;;;;;;;;;;5034409;28;20091;-79
2022/05/20 10:52:20;;;;;;;10.55;3.78;;;;;;;;;;5032678;28;20041;-75
2022/05/20 10:54:58;;;;;;;10.73;3.17;;;;;;;;;;5049499;28;20025;-89
2022/05/20 10:57:42;;;;;;;8.40;3.33;;;;;;;;;;5054374;28;20033;-87
2022/05/20 11:00:19;;;;;;;9.60;3.40;;;;;;;;;;5053844;28;20048;-83
2022/05/20 11:03:04;;;;;;;6.55;3.40;;;;;;;;;;5066735;28;20026;-86
2022/05/20 11:05:48;;;;;;;9.30;3.95;;;;;;;;;;5058519;28;20108;-83
2022/05/20 11:08:25;;;;;;;6.63;3.42;;;;;;;;;;5051946;28;20036;-78
2022/05/20 11:10:54;;;;;;;7.57;4.13;;;;;;;;;;5060546;28;20021;-76
2022/05/20 11:13:33;;;;;;;9.00;3.20;;;;;;;;;;5070650;28;20013;-85
2022/05/20 11:16:02;;;;;;;7.07;3.77;;;;;;;;;;5073144;28;20013;-82
2022/05/20 11:18:47;;;;;;;6.97;3.67;;;;;;;;;;5073422;28;20280;-88
2022/05/20 11:21:13;;;;;;;9.43;3.35;;;;;;;;;;5068930;28;20021;-84
2022/05/20 11:24:01;;;;;;;6.43;4.13;;;;;;;;;;5055441;28;20370;-78
2022/05/20 11:26:36;;;;;;;6.97;4.03;;;;;;;;;;5038280;28;20067;-78
2022/05/20 11:29:05;;;;;;;8.10;3.40;;;;;;;;;;5056507;28;20512;-79
2022/05/20 11:31:32;;;;;;;10.47;4.07;;;;;;;;;;5036883;28;20196;-79
2022/05/20 11:34:09;;;;;;;6.35;3.70;;;;;;;;;;5053249;28;20043;-73
2022/05/20 11:36:38;;;;;;;7.80;3.83;;;;;;;;;;5043493;28;20328;-72
2022/05/20 11:39:28;;;;;;;11.75;4.10;;;;;;;;;;5050989;28;20013;-73
2022/05/20 11:41:54;;;;;;;5.70;3.15;;;;;;;;;;4998723;28;20025;-73
2022/05/20 11:44:24;;;;;;;12.68;3.30;;;;;;;;;;5050676;28;20025;-73
2022/05/20 11:47:08;;;;;;;9.15;3.75;;;;;;;;;;5050983;28;20114;-73
2022/05/20 11:49:41;;;;;;;8.30;4.30;;;;;;;;;;5051161;28;20083;-72
2022/05/20 11:52:19;;;;;;;11.35;5.22;;;;;;;;;;5050249;28;20079;-72
2022/05/20 11:54:54;;;;;;;8.50;3.50;;;;;;;;;;5049430;28;20486;-72
2022/05/20 11:57:22;;;;;;;10.70;4.53;;;;;;;;;;5038089;28;20113;-72
2022/05/20 11:59:52;;;;;;;9.65;3.50;;;;;;;;;;5040658;28;20025;-72
2022/05/20 12:02:19;;;;;;;9.57;3.97;;;;;;;;;;5025558;28;20029;-72
2022/05/20 12:04:47;;;;;;;6.72;3.60;;;;;;;;;;5033776;28;20067;-72
2022/05/20 12:07:15;;;;;;;7.53;3.65;;;;;;;;;;5045567;28;20040;-73
2022/05/20 12:09:42;;;;;;;9.75;3.38;;;;;;;;;;5055148;28;20029;-72
2022/05/20 12:12:28;;;;;;;10.20;3.38;;;;;;;;;;5053062;28;20017;-72
2022/05/20 12:14:54;;;;;;;7.80;3.25;;;;;;;;;;5048257;28;20475;-73
2022/05/20 12:17:31;;;;;;;8.73;3.47;;;;;;;;;;5038323;28;20026;-72
2022/05/20 12:26:15;;;;;;;6.28;2.83;;;;;;;;;;5045654;28;20034;-73
2022/05/20 12:28:42;;;;;;;11.35;3.50;;;;;;;;;;5048451;28;20539;-71
2022/05/20 12:31:13;;;;;;;11.90;3.67;;;;;;;;;;5053243;28;20096;-73
2022/05/20 12:34:00;;;;;;;6.03;3.53;;;;;;;;;;5041647;28;20029;-73
2022/05/20 12:36:29;;;;;;;8.10;3.85;;;;;;;;;;5038247;28;20036;-73
2022/05/20 12:39:07;;;;;;;6.40;3.27;;;;;;;;;;5034587;28;20029;-76
2022/05/20 12:41:40;;;;;;;6.82;2.97;;;;;;;;;;5018352;28;20280;-75
2022/05/20 12:44:19;;;;;;;8.38;3.42;;;;;;;;;;5035096;28;20037;-74
2022/05/20 12:47:04;;;;;;;10.43;4.28;;;;;;;;;;5053378;28;20136;-74
2022/05/20 12:49:41;;;;;;;7.97;3.10;;;;;;;;;;5053429;28;20044;-74
2022/05/20 12:52:13;;;;;;;5.00;3.20;;;;;;;;;;5043264;28;20478;-75
2022/05/20 12:54:41;;;;;;;12.13;3.33;;;;;;;;;;5042428;28;20126;-74
2022/05/20 12:57:09;;;;;;;9.27;3.42;;;;;;;;;;5034043;28;20022;-74
2022/05/20 12:59:35;;;;;;;11.85;3.85;;;;;;;;;;5035728;28;20025;-73
2022/05/20 13:02:06;;;;;;;7.18;3.80;;;;;;;;;;5052313;28;20028;-73
2022/05/20 13:04:37;;;;;;;14.20;3.88;;;;;;;;;;5042342;28;20037;-80
2022/05/20 13:07:04;;;;;;;10.65;3.55;;;;;;;;;;5040602;28;20037;-76
2022/05/20 13:09:38;;;;;;;9.07;3.33;;;;;;;;;;5051973;28;20493;-76
2022/05/20 13:12:07;;;;;;;13.55;3.30;;;;;;;;;;5038994;28;20033;-75
2022/05/20 13:14:34;;;;;;;5.10;3.13;;;;;;;;;;5037746;28;20031;-74
2022/05/20 13:17:03;;;;;;;6.45;3.20;;;;;;;;;;5047610;28;20080;-73
2022/05/20 13:19:29;;;;;;;;;;;;;;;;;;5053027;28;20090;-73
2022/05/20 13:21:58;;;;;;;6.72;2.97;;;;;;;;;;5052989;28;19917;-73
2022/05/20 13:24:25;;;;;;;5.93;3.20;;;;;;;;;;5050877;28;20047;-80
2022/05/20 13:27:02;;;;;;;6.07;3.30;;;;;;;;;;5052318;28;20188;-81
2022/05/20 13:29:28;;;;;;;8.13;3.05;;;;;;;;;;5046474;28;20053;-80
2022/05/20 13:32:10;;;;;;;8.85;3.50;;;;;;;;;;5016773;28;20022;-80
2022/05/20 13:34:36;;;;;;;8.10;2.75;;;;;;;;;;5046960;28;20545;-81
2022/05/20 13:37:03;;;;;;;6.85;3.35;;;;;;;;;;5054969;28;20056;-82
2022/05/20 13:39:29;;;;;;;13.27;3.38;;;;;;;;;;5053550;28;20069;-83
2022/05/20 13:41:55;;;;;;;7.45;3.55;;;;;;;;;;5044567;28;20033;-84
2022/05/20 13:44:22;;;;;;;11.57;3.30;;;;;;;;;;5016328;28;20029;-83
2022/05/20 13:49:34;;;;;;;10.75;3.22;;;;;;;;;;5045684;28;20068;-83
2022/05/20 13:52:02;;;;;;;9.35;3.42;;;;;;;;;;5053155;28;20469;-83
2022/05/20 13:54:29;;;;;;;7.38;2.97;;;;;;;;;;5050209;28;20035;-83
2022/05/20 13:56:57;;;;;;;5.47;3.25;;;;;;;;;;5034790;28;20080;-82
2022/05/20 13:59:32;;;;;;;9.05;3.28;;;;;;;;;;5051109;28;20033;-80
2022/05/20 14:02:01;;;;;;;6.53;3.63;;;;;;;;;;5053566;28;20127;-81
2022/05/20 14:04:46;;;;;;;5.72;2.85;;;;;;;;;;5051528;28;20663;-81
2022/05/20 14:07:12;;;;;;;6.72;2.80;;;;;;;;;;5041070;28;20064;-82
2022/05/20 14:09:42;;;;;;;6.80;3.10;;;;;;;;;;5048289;28;20053;-74
2022/05/20 14:12:14;;;;;;;7.22;3.10;;;;;;;;;;5040926;28;20483;-75
2022/05/20 14:14:40;;;;;;;8.68;3.42;;;;;;;;;;5046890;28;20032;-76
2022/05/20 14:17:08;;;;;;;6.53;3.05;;;;;;;;;;5037089;28;20077;-74
2022/05/20 14:19:45;;;;;;;9.75;3.40;;;;;;;;;;5051067;28;20024;-73
2022/05/20 14:22:17;;;;;;;9.07;3.15;;;;;;;;;;5046403;28;20080;-76
2022/05/20 14:24:49;;;;;;;7.05;3.08;;;;;;;;;;5041489;28;20163;-75